sensor_id;sensor_type;location;lat;lon;timestamp;P1;durP1;ratioP1;P2;durP2;ratioP2
47575;SDS011;33304;52.456;13.328;2023-05-10T00:01:21;1.57;;;1.47;;
47575;SDS011;33304;52.456;13.328;2023-05-10T00:03:48;2.70;;;1.60;;
47575;SDS011;33304;52.456;13.328;2023-05-10T00:06:15;1.73;;;1.60;;
47575;SDS011;33304;52.456;13.328;2023-05-10T00:08:44;1.60;;;1.50;;
47575;SDS011;33304;52.456;13.328;2023-05-10T00:11:11;1.83;;;1.60;;
47575;SDS011;33304;52.456;13.328;2023-05-10T00:13:38;2.53;;;1.80;;
47575;SDS011;33304;52.456;13.328;2023-05-10T00:16:06;1.63;;;1.53;;
47575;SDS011;33304;52.456;13.328;2023-05-10T00:18:33;1.80;;;1.70;;
47575;SDS011;33304;52.456;13.328;2023-05-10T00:21:00;1.80;;;1.70;;
47575;SDS011;33304;52.456;13.328;2023-05-10T00:23:27;2.00;;;1.77;;
47575;SDS011;33304;52.456;13.328;2023-05-10T00:25:56;2.07;;;1.70;;
47575;SDS011;33304;52.456;13.328;2023-05-10T00:28:23;1.60;;;1.50;;
47575;SDS011;33304;52.456;13.328;2023-05-10T00:30:50;1.70;;;1.60;;
47575;SDS011;33304;52.456;13.328;2023-05-10T00:33:17;1.60;;;1.50;;
47575;SDS011;33304;52.456;13.328;2023-05-10T00:35:44;1.90;;;1.70;;
47575;SDS011;33304;52.456;13.328;2023-05-10T00:38:11;1.50;;;1.40;;
47575;SDS011;33304;52.456;13.328;2023-05-10T00:40:38;5.17;;;1.60;;
47575;SDS011;33304;52.456;13.328;2023-05-10T00:43:12;1.43;;;1.33;;
47575;SDS011;33304;52.456;13.328;2023-05-10T00:45:40;2.47;;;1.90;;
47575;SDS011;33304;52.456;13.328;2023-05-10T00:48:07;3.73;;;1.70;;
47575;SDS011;33304;52.456;13.328;2023-05-10T00:50:35;1.63;;;1.40;;
47575;SDS011;33304;52.456;13.328;2023-05-10T00:53:02;1.50;;;1.40;;
47575;SDS011;33304;52.456;13.328;2023-05-10T00:55:29;1.40;;;1.30;;
47575;SDS011;33304;52.456;13.328;2023-05-10T00:57:57;1.93;;;1.73;;
47575;SDS011;33304;52.456;13.328;2023-05-10T01:00:26;2.13;;;1.80;;
47575;SDS011;33304;52.456;13.328;2023-05-10T01:02:53;3.63;;;1.87;;
47575;SDS011;33304;52.456;13.328;2023-05-10T01:05:21;2.23;;;1.73;;
47575;SDS011;33304;52.456;13.328;2023-05-10T01:07:49;2.83;;;1.87;;
47575;SDS011;33304;52.456;13.328;2023-05-10T01:10:17;1.50;;;1.40;;
47575;SDS011;33304;52.456;13.328;2023-05-10T01:12:45;2.07;;;1.87;;
47575;SDS011;33304;52.456;13.328;2023-05-10T01:15:14;2.00;;;1.80;;
47575;SDS011;33304;52.456;13.328;2023-05-10T01:17:45;2.40;;;1.80;;
47575;SDS011;33304;52.456;13.328;2023-05-10T01:20:14;1.50;;;1.40;;
47575;SDS011;33304;52.456;13.328;2023-05-10T01:22:47;2.40;;;2.20;;
47575;SDS011;33304;52.456;13.328;2023-05-10T01:28:49;2.33;;;2.13;;
47575;SDS011;33304;52.456;13.328;2023-05-10T01:34:47;1.93;;;1.83;;
47575;SDS011;33304;52.456;13.328;2023-05-10T01:37:21;1.93;;;1.80;;
47575;SDS011;33304;52.456;13.328;2023-05-10T01:39:58;4.70;;;1.90;;
47575;SDS011;33304;52.456;13.328;2023-05-10T01:42:32;2.23;;;1.87;;
47575;SDS011;33304;52.456;13.328;2023-05-10T01:45:07;2.23;;;1.60;;
47575;SDS011;33304;52.456;13.328;2023-05-10T01:47:42;1.50;;;1.40;;
47575;SDS011;33304;52.456;13.328;2023-05-10T01:50:15;2.73;;;1.67;;
47575;SDS011;33304;52.456;13.328;2023-05-10T01:52:45;1.80;;;1.70;;
47575;SDS011;33304;52.456;13.328;2023-05-10T01:55:18;1.80;;;1.70;;
47575;SDS011;33304;52.456;13.328;2023-05-10T01:57:48;2.27;;;1.50;;
47575;SDS011;33304;52.456;13.328;2023-05-10T02:00:19;1.90;;;1.80;;
47575;SDS011;33304;52.456;13.328;2023-05-10T02:02:47;1.63;;;1.53;;
47575;SDS011;33304;52.456;13.328;2023-05-10T02:05:16;2.57;;;2.00;;
47575;SDS011;33304;52.456;13.328;2023-05-10T02:07:46;2.63;;;2.23;;
47575;SDS011;33304;52.456;13.328;2023-05-10T02:10:15;2.23;;;2.03;;
47575;SDS011;33304;52.456;13.328;2023-05-10T02:12:47;3.53;;;2.20;;
47575;SDS011;33304;52.456;13.328;2023-05-10T02:15:17;1.97;;;1.87;;
47575;SDS011;33304;52.456;13.328;2023-05-10T02:17:47;1.97;;;1.77;;
47575;SDS011;33304;52.456;13.328;2023-05-10T02:20:15;2.20;;;2.00;;
47575;SDS011;33304;52.456;13.328;2023-05-10T02:22:45;2.17;;;1.90;;
47575;SDS011;33304;52.456;13.328;2023-05-10T02:25:15;3.77;;;2.10;;
47575;SDS011;33304;52.456;13.328;2023-05-10T02:27:44;3.13;;;2.03;;
47575;SDS011;33304;52.456;13.328;2023-05-10T02:30:12;1.90;;;1.80;;
47575;SDS011;33304;52.456;13.328;2023-05-10T02:32:41;1.80;;;1.70;;
47575;SDS011;33304;52.456;13.328;2023-05-10T02:35:10;2.47;;;1.70;;
47575;SDS011;33304;52.456;13.328;2023-05-10T02:37:39;3.43;;;2.00;;
47575;SDS011;33304;52.456;13.328;2023-05-10T02:40:07;2.80;;;2.00;;
47575;SDS011;33304;52.456;13.328;2023-05-10T02:42:37;1.90;;;1.80;;
47575;SDS011;33304;52.456;13.328;2023-05-10T02:45:10;2.67;;;2.13;;
47575;SDS011;33304;52.456;13.328;2023-05-10T02:47:41;1.73;;;1.63;;
47575;SDS011;33304;52.456;13.328;2023-05-10T02:50:09;1.83;;;1.73;;
47575;SDS011;33304;52.456;13.328;2023-05-10T02:52:40;5.17;;;2.17;;
47575;SDS011;33304;52.456;13.328;2023-05-10T02:55:11;1.87;;;1.77;;
47575;SDS011;33304;52.456;13.328;2023-05-10T02:57:41;1.80;;;1.60;;
47575;SDS011;33304;52.456;13.328;2023-05-10T03:00:13;2.57;;;1.60;;
47575;SDS011;33304;52.456;13.328;2023-05-10T03:02:40;2.17;;;1.73;;
47575;SDS011;33304;52.456;13.328;2023-05-10T03:05:08;1.90;;;1.80;;
47575;SDS011;33304;52.456;13.328;2023-05-10T03:07:35;2.00;;;1.80;;
47575;SDS011;33304;52.456;13.328;2023-05-10T03:10:05;1.90;;;1.70;;
47575;SDS011;33304;52.456;13.328;2023-05-10T03:12:41;3.97;;;1.97;;
47575;SDS011;33304;52.456;13.328;2023-05-10T03:15:22;2.30;;;1.73;;
47575;SDS011;33304;52.456;13.328;2023-05-10T03:18:01;2.20;;;1.87;;
47575;SDS011;33304;52.456;13.328;2023-05-10T03:20:33;2.17;;;2.00;;
47575;SDS011;33304;52.456;13.328;2023-05-10T03:23:07;3.37;;;2.30;;
47575;SDS011;33304;52.456;13.328;2023-05-10T03:25:41;2.27;;;2.07;;
47575;SDS011;33304;52.456;13.328;2023-05-10T03:28:10;2.37;;;1.97;;
47575;SDS011;33304;52.456;13.328;2023-05-10T03:30:38;2.30;;;2.10;;
47575;SDS011;33304;52.456;13.328;2023-05-10T03:33:09;2.20;;;2.00;;
47575;SDS011;33304;52.456;13.328;2023-05-10T03:35:40;2.07;;;1.70;;
47575;SDS011;33304;52.456;13.328;2023-05-10T03:38:07;1.90;;;1.80;;
47575;SDS011;33304;52.456;13.328;2023-05-10T03:40:34;2.00;;;1.80;;
47575;SDS011;33304;52.456;13.328;2023-05-10T03:43:03;3.50;;;1.60;;
47575;SDS011;33304;52.456;13.328;2023-05-10T03:45:31;3.37;;;2.00;;
47575;SDS011;33304;52.456;13.328;2023-05-10T03:47:59;1.90;;;1.80;;
47575;SDS011;33304;52.456;13.328;2023-05-10T03:50:26;2.03;;;1.80;;
47575;SDS011;33304;52.456;13.328;2023-05-10T03:52:53;1.63;;;1.53;;
47575;SDS011;33304;52.456;13.328;2023-05-10T03:55:20;2.47;;;2.03;;
47575;SDS011;33304;52.456;13.328;2023-05-10T03:57:48;1.93;;;1.70;;
47575;SDS011;33304;52.456;13.328;2023-05-10T04:00:17;1.87;;;1.77;;
47575;SDS011;33304;52.456;13.328;2023-05-10T04:02:48;2.10;;;1.90;;
47575;SDS011;33304;52.456;13.328;2023-05-10T04:05:18;1.57;;;1.43;;
47575;SDS011;33304;52.456;13.328;2023-05-10T04:07:45;2.50;;;2.13;;
47575;SDS011;33304;52.456;13.328;2023-05-10T04:10:14;1.83;;;1.60;;
47575;SDS011;33304;52.456;13.328;2023-05-10T04:12:43;1.73;;;1.47;;
47575;SDS011;33304;52.456;13.328;2023-05-10T04:15:10;2.17;;;1.73;;
47575;SDS011;33304;52.456;13.328;2023-05-10T04:17:38;2.60;;;2.00;;
47575;SDS011;33304;52.456;13.328;2023-05-10T04:20:06;1.63;;;1.50;;
47575;SDS011;33304;52.456;13.328;2023-05-10T04:22:33;1.70;;;1.60;;
47575;SDS011;33304;52.456;13.328;2023-05-10T04:25:01;1.70;;;1.60;;
47575;SDS011;33304;52.456;13.328;2023-05-10T04:27:28;2.23;;;1.80;;
47575;SDS011;33304;52.456;13.328;2023-05-10T04:29:55;2.20;;;2.00;;
47575;SDS011;33304;52.456;13.328;2023-05-10T04:32:22;1.97;;;1.60;;
47575;SDS011;33304;52.456;13.328;2023-05-10T04:34:50;1.90;;;1.70;;
47575;SDS011;33304;52.456;13.328;2023-05-10T04:37:18;3.10;;;1.50;;
47575;SDS011;33304;52.456;13.328;2023-05-10T04:39:46;2.10;;;1.87;;
47575;SDS011;33304;52.456;13.328;2023-05-10T04:42:13;1.97;;;1.50;;
47575;SDS011;33304;52.456;13.328;2023-05-10T04:44:41;2.17;;;1.67;;
47575;SDS011;33304;52.456;13.328;2023-05-10T04:47:08;1.80;;;1.70;;
47575;SDS011;33304;52.456;13.328;2023-05-10T04:49:35;1.87;;;1.77;;
47575;SDS011;33304;52.456;13.328;2023-05-10T04:52:04;1.73;;;1.60;;
47575;SDS011;33304;52.456;13.328;2023-05-10T04:54:31;2.03;;;1.67;;
47575;SDS011;33304;52.456;13.328;2023-05-10T04:56:58;1.90;;;1.70;;
47575;SDS011;33304;52.456;13.328;2023-05-10T04:59:25;1.97;;;1.73;;
47575;SDS011;33304;52.456;13.328;2023-05-10T05:01:52;1.87;;;1.73;;
47575;SDS011;33304;52.456;13.328;2023-05-10T05:04:19;1.73;;;1.57;;
47575;SDS011;33304;52.456;13.328;2023-05-10T05:06:48;1.77;;;1.67;;
47575;SDS011;33304;52.456;13.328;2023-05-10T05:09:16;1.80;;;1.70;;
47575;SDS011;33304;52.456;13.328;2023-05-10T05:11:43;2.07;;;1.70;;
47575;SDS011;33304;52.456;13.328;2023-05-10T05:14:10;2.47;;;1.90;;
47575;SDS011;33304;52.456;13.328;2023-05-10T05:16:37;2.00;;;1.30;;
47575;SDS011;33304;52.456;13.328;2023-05-10T05:19:05;2.17;;;1.70;;
47575;SDS011;33304;52.456;13.328;2023-05-10T05:21:32;2.03;;;1.57;;
47575;SDS011;33304;52.456;13.328;2023-05-10T05:23:59;3.40;;;1.60;;
47575;SDS011;33304;52.456;13.328;2023-05-10T05:26:27;2.00;;;1.77;;
47575;SDS011;33304;52.456;13.328;2023-05-10T05:28:55;2.00;;;1.80;;
47575;SDS011;33304;52.456;13.328;2023-05-10T05:31:22;3.33;;;1.70;;
47575;SDS011;33304;52.456;13.328;2023-05-10T05:33:49;1.50;;;1.40;;
47575;SDS011;33304;52.456;13.328;2023-05-10T05:36:16;3.53;;;1.50;;
47575;SDS011;33304;52.456;13.328;2023-05-10T05:38:43;2.57;;;1.83;;
47575;SDS011;33304;52.456;13.328;2023-05-10T05:41:10;1.33;;;1.23;;
47575;SDS011;33304;52.456;13.328;2023-05-10T05:43:39;2.73;;;1.40;;
47575;SDS011;33304;52.456;13.328;2023-05-10T05:46:06;2.10;;;1.70;;
47575;SDS011;33304;52.456;13.328;2023-05-10T05:48:33;2.10;;;1.47;;
47575;SDS011;33304;52.456;13.328;2023-05-10T05:51:00;1.60;;;1.50;;
47575;SDS011;33304;52.456;13.328;2023-05-10T05:53:27;2.07;;;1.60;;
47575;SDS011;33304;52.456;13.328;2023-05-10T05:55:55;1.67;;;1.30;;
47575;SDS011;33304;52.456;13.328;2023-05-10T05:58:23;1.50;;;1.40;;
47575;SDS011;33304;52.456;13.328;2023-05-10T06:00:52;1.40;;;1.30;;
47575;SDS011;33304;52.456;13.328;2023-05-10T06:03:19;1.40;;;1.30;;
47575;SDS011;33304;52.456;13.328;2023-05-10T06:05:46;1.40;;;1.30;;
47575;SDS011;33304;52.456;13.328;2023-05-10T06:08:14;1.83;;;1.57;;
47575;SDS011;33304;52.456;13.328;2023-05-10T06:10:41;2.47;;;1.20;;
47575;SDS011;33304;52.456;13.328;2023-05-10T06:13:08;1.40;;;1.30;;
47575;SDS011;33304;52.456;13.328;2023-05-10T06:15:35;2.80;;;1.50;;
47575;SDS011;33304;52.456;13.328;2023-05-10T06:18:04;1.40;;;1.30;;
47575;SDS011;33304;52.456;13.328;2023-05-10T06:20:31;4.10;;;1.47;;
47575;SDS011;33304;52.456;13.328;2023-05-10T06:22:58;1.53;;;1.40;;
47575;SDS011;33304;52.456;13.328;2023-05-10T06:25:25;1.93;;;1.40;;
47575;SDS011;33304;52.456;13.328;2023-05-10T06:27:52;1.37;;;1.17;;
47575;SDS011;33304;52.456;13.328;2023-05-10T06:30:23;1.20;;;1.10;;
47575;SDS011;33304;52.456;13.328;2023-05-10T06:32:53;1.70;;;1.40;;
47575;SDS011;33304;52.456;13.328;2023-05-10T06:35:22;1.60;;;1.50;;
47575;SDS011;33304;52.456;13.328;2023-05-10T06:37:49;1.03;;;1.00;;
47575;SDS011;33304;52.456;13.328;2023-05-10T06:40:17;2.07;;;1.50;;
47575;SDS011;33304;52.456;13.328;2023-05-10T06:42:44;0.93;;;0.93;;
47575;SDS011;33304;52.456;13.328;2023-05-10T06:45:12;1.30;;;1.20;;
47575;SDS011;33304;52.456;13.328;2023-05-10T06:47:39;1.30;;;1.20;;
47575;SDS011;33304;52.456;13.328;2023-05-10T06:50:07;2.43;;;1.63;;
47575;SDS011;33304;52.456;13.328;2023-05-10T06:52:36;1.40;;;1.30;;
47575;SDS011;33304;52.456;13.328;2023-05-10T06:55:03;1.80;;;1.30;;
47575;SDS011;33304;52.456;13.328;2023-05-10T06:57:31;2.80;;;1.53;;
47575;SDS011;33304;52.456;13.328;2023-05-10T06:59:58;3.80;;;1.33;;
47575;SDS011;33304;52.456;13.328;2023-05-10T07:02:25;1.20;;;1.10;;
47575;SDS011;33304;52.456;13.328;2023-05-10T07:04:53;1.40;;;1.30;;
47575;SDS011;33304;52.456;13.328;2023-05-10T07:07:20;1.43;;;1.33;;
47575;SDS011;33304;52.456;13.328;2023-05-10T07:09:48;1.07;;;1.00;;
47575;SDS011;33304;52.456;13.328;2023-05-10T07:12:16;1.83;;;1.60;;
47575;SDS011;33304;52.456;13.328;2023-05-10T07:14:44;1.03;;;1.00;;
47575;SDS011;33304;52.456;13.328;2023-05-10T07:17:12;1.47;;;1.37;;
47575;SDS011;33304;52.456;13.328;2023-05-10T07:19:39;1.50;;;1.40;;
47575;SDS011;33304;52.456;13.328;2023-05-10T07:22:06;1.60;;;1.43;;
47575;SDS011;33304;52.456;13.328;2023-05-10T07:24:33;1.37;;;1.27;;
47575;SDS011;33304;52.456;13.328;2023-05-10T07:27:02;1.40;;;1.30;;
47575;SDS011;33304;52.456;13.328;2023-05-10T07:29:29;1.30;;;1.20;;
47575;SDS011;33304;52.456;13.328;2023-05-10T07:31:56;1.43;;;1.33;;
47575;SDS011;33304;52.456;13.328;2023-05-10T07:34:23;2.07;;;1.17;;
47575;SDS011;33304;52.456;13.328;2023-05-10T07:36:51;2.33;;;1.43;;
47575;SDS011;33304;52.456;13.328;2023-05-10T07:39:18;1.40;;;1.30;;
47575;SDS011;33304;52.456;13.328;2023-05-10T07:41:46;1.17;;;1.10;;
47575;SDS011;33304;52.456;13.328;2023-05-10T07:44:14;1.20;;;1.10;;
47575;SDS011;33304;52.456;13.328;2023-05-10T07:46:43;1.30;;;1.00;;
47575;SDS011;33304;52.456;13.328;2023-05-10T07:49:11;1.47;;;1.00;;
47575;SDS011;33304;52.456;13.328;2023-05-10T07:51:38;1.20;;;1.10;;
47575;SDS011;33304;52.456;13.328;2023-05-10T07:54:05;1.40;;;1.30;;
47575;SDS011;33304;52.456;13.328;2023-05-10T07:56:33;1.20;;;1.10;;
47575;SDS011;33304;52.456;13.328;2023-05-10T07:59:00;1.20;;;1.10;;
47575;SDS011;33304;52.456;13.328;2023-05-10T08:01:31;0.93;;;0.80;;
47575;SDS011;33304;52.456;13.328;2023-05-10T08:03:58;1.80;;;1.43;;
47575;SDS011;33304;52.456;13.328;2023-05-10T08:06:26;1.30;;;1.20;;
47575;SDS011;33304;52.456;13.328;2023-05-10T08:08:55;1.50;;;1.40;;
47575;SDS011;33304;52.456;13.328;2023-05-10T08:11:22;1.23;;;1.13;;
47575;SDS011;33304;52.456;13.328;2023-05-10T08:13:50;1.40;;;1.27;;
47575;SDS011;33304;52.456;13.328;2023-05-10T08:16:17;1.50;;;1.40;;
47575;SDS011;33304;52.456;13.328;2023-05-10T08:18:46;1.37;;;1.27;;
47575;SDS011;33304;52.456;13.328;2023-05-10T08:21:14;0.90;;;0.90;;
47575;SDS011;33304;52.456;13.328;2023-05-10T08:23:41;1.33;;;1.23;;
47575;SDS011;33304;52.456;13.328;2023-05-10T08:26:09;1.47;;;1.33;;
47575;SDS011;33304;52.456;13.328;2023-05-10T08:28:36;1.30;;;1.20;;
47575;SDS011;33304;52.456;13.328;2023-05-10T08:31:04;1.20;;;1.10;;
47575;SDS011;33304;52.456;13.328;2023-05-10T08:33:31;1.33;;;1.23;;
47575;SDS011;33304;52.456;13.328;2023-05-10T08:35:59;1.47;;;1.37;;
47575;SDS011;33304;52.456;13.328;2023-05-10T08:38:26;1.10;;;1.00;;
47575;SDS011;33304;52.456;13.328;2023-05-10T08:40:54;1.40;;;1.10;;
47575;SDS011;33304;52.456;13.328;2023-05-10T08:43:25;1.20;;;1.10;;
47575;SDS011;33304;52.456;13.328;2023-05-10T08:45:54;1.40;;;1.20;;
47575;SDS011;33304;52.456;13.328;2023-05-10T08:48:22;1.50;;;1.40;;
47575;SDS011;33304;52.456;13.328;2023-05-10T08:50:52;1.40;;;1.20;;
47575;SDS011;33304;52.456;13.328;2023-05-10T08:53:22;1.63;;;1.00;;
47575;SDS011;33304;52.456;13.328;2023-05-10T08:55:52;1.10;;;1.10;;
47575;SDS011;33304;52.456;13.328;2023-05-10T08:58:19;1.33;;;1.23;;
47575;SDS011;33304;52.456;13.328;2023-05-10T09:00:48;3.87;;;1.20;;
47575;SDS011;33304;52.456;13.328;2023-05-10T09:03:16;1.80;;;1.30;;
47575;SDS011;33304;52.456;13.328;2023-05-10T09:05:44;1.13;;;1.07;;
47575;SDS011;33304;52.456;13.328;2023-05-10T09:08:12;1.83;;;1.40;;
47575;SDS011;33304;52.456;13.328;2023-05-10T09:10:43;1.13;;;1.00;;
47575;SDS011;33304;52.456;13.328;2023-05-10T09:13:12;0.90;;;0.90;;
47575;SDS011;33304;52.456;13.328;2023-05-10T09:15:40;3.33;;;1.37;;
47575;SDS011;33304;52.456;13.328;2023-05-10T09:18:08;1.20;;;1.10;;
47575;SDS011;33304;52.456;13.328;2023-05-10T09:20:35;1.50;;;1.20;;
47575;SDS011;33304;52.456;13.328;2023-05-10T09:23:02;1.47;;;1.37;;
47575;SDS011;33304;52.456;13.328;2023-05-10T09:25:29;2.40;;;1.60;;
47575;SDS011;33304;52.456;13.328;2023-05-10T09:28:00;1.53;;;1.43;;
47575;SDS011;33304;52.456;13.328;2023-05-10T09:30:27;2.07;;;1.40;;
47575;SDS011;33304;52.456;13.328;2023-05-10T09:32:55;1.70;;;1.60;;
47575;SDS011;33304;52.456;13.328;2023-05-10T09:35:24;1.70;;;1.60;;
47575;SDS011;33304;52.456;13.328;2023-05-10T09:37:53;1.60;;;1.50;;
47575;SDS011;33304;52.456;13.328;2023-05-10T09:40:22;2.00;;;1.90;;
47575;SDS011;33304;52.456;13.328;2023-05-10T09:42:51;3.63;;;1.63;;
47575;SDS011;33304;52.456;13.328;2023-05-10T09:45:21;1.67;;;1.57;;
47575;SDS011;33304;52.456;13.328;2023-05-10T09:47:49;2.47;;;1.50;;
47575;SDS011;33304;52.456;13.328;2023-05-10T09:50:16;1.60;;;1.50;;
47575;SDS011;33304;52.456;13.328;2023-05-10T09:52:47;1.53;;;1.43;;
47575;SDS011;33304;52.456;13.328;2023-05-10T09:55:15;1.40;;;1.30;;
47575;SDS011;33304;52.456;13.328;2023-05-10T09:57:43;1.40;;;1.30;;
47575;SDS011;33304;52.456;13.328;2023-05-10T10:00:10;1.40;;;1.30;;
47575;SDS011;33304;52.456;13.328;2023-05-10T10:02:46;2.40;;;1.20;;
47575;SDS011;33304;52.456;13.328;2023-05-10T10:05:15;1.37;;;1.27;;
47575;SDS011;33304;52.456;13.328;2023-05-10T10:07:42;1.33;;;1.23;;
47575;SDS011;33304;52.456;13.328;2023-05-10T10:10:09;4.00;;;1.30;;
47575;SDS011;33304;52.456;13.328;2023-05-10T10:12:40;1.13;;;1.13;;
47575;SDS011;33304;52.456;13.328;2023-05-10T10:15:08;2.70;;;1.23;;
47575;SDS011;33304;52.456;13.328;2023-05-10T10:17:35;1.93;;;1.47;;
47575;SDS011;33304;52.456;13.328;2023-05-10T10:20:06;2.30;;;1.30;;
47575;SDS011;33304;52.456;13.328;2023-05-10T10:22:34;1.60;;;1.50;;
47575;SDS011;33304;52.456;13.328;2023-05-10T10:25:03;1.50;;;1.33;;
47575;SDS011;33304;52.456;13.328;2023-05-10T10:27:34;3.03;;;1.57;;
47575;SDS011;33304;52.456;13.328;2023-05-10T10:30:12;1.50;;;1.40;;
47575;SDS011;33304;52.456;13.328;2023-05-10T10:32:55;1.63;;;1.53;;
47575;SDS011;33304;52.456;13.328;2023-05-10T10:35:34;1.73;;;1.50;;
47575;SDS011;33304;52.456;13.328;2023-05-10T10:38:03;2.13;;;1.50;;
47575;SDS011;33304;52.456;13.328;2023-05-10T10:40:30;1.60;;;1.37;;
47575;SDS011;33304;52.456;13.328;2023-05-10T10:42:59;1.80;;;1.33;;
47575;SDS011;33304;52.456;13.328;2023-05-10T10:48:38;1.40;;;1.30;;
47575;SDS011;33304;52.456;13.328;2023-05-10T10:51:07;3.47;;;1.40;;
47575;SDS011;33304;52.456;13.328;2023-05-10T10:53:34;2.37;;;1.07;;
47575;SDS011;33304;52.456;13.328;2023-05-10T10:56:05;1.37;;;1.27;;
47575;SDS011;33304;52.456;13.328;2023-05-10T10:58:34;1.50;;;1.40;;
47575;SDS011;33304;52.456;13.328;2023-05-10T11:01:13;3.07;;;1.70;;
47575;SDS011;33304;52.456;13.328;2023-05-10T11:03:41;5.80;;;1.50;;
47575;SDS011;33304;52.456;13.328;2023-05-10T11:06:42;1.47;;;1.37;;
47575;SDS011;33304;52.456;13.328;2023-05-10T11:09:10;2.30;;;1.40;;
47575;SDS011;33304;52.456;13.328;2023-05-10T11:11:48;2.77;;;1.67;;
47575;SDS011;33304;52.456;13.328;2023-05-10T11:14:17;1.50;;;1.40;;
47575;SDS011;33304;52.456;13.328;2023-05-10T11:16:46;1.10;;;1.10;;
47575;SDS011;33304;52.456;13.328;2023-05-10T11:19:15;1.83;;;1.40;;
47575;SDS011;33304;52.456;13.328;2023-05-10T11:21:48;2.73;;;1.30;;
47575;SDS011;33304;52.456;13.328;2023-05-10T11:24:17;1.30;;;1.20;;
47575;SDS011;33304;52.456;13.328;2023-05-10T11:26:46;1.70;;;1.60;;
47575;SDS011;33304;52.456;13.328;2023-05-10T11:29:15;1.90;;;1.57;;
47575;SDS011;33304;52.456;13.328;2023-05-10T11:31:43;1.20;;;1.10;;
47575;SDS011;33304;52.456;13.328;2023-05-10T11:34:12;1.40;;;1.30;;
47575;SDS011;33304;52.456;13.328;2023-05-10T11:36:52;1.57;;;1.47;;
47575;SDS011;33304;52.456;13.328;2023-05-10T11:39:20;2.50;;;1.37;;
47575;SDS011;33304;52.456;13.328;2023-05-10T11:41:48;1.73;;;1.63;;
47575;SDS011;33304;52.456;13.328;2023-05-10T11:44:15;1.93;;;1.60;;
47575;SDS011;33304;52.456;13.328;2023-05-10T11:46:42;2.23;;;1.40;;
47575;SDS011;33304;52.456;13.328;2023-05-10T11:49:10;1.43;;;1.33;;
47575;SDS011;33304;52.456;13.328;2023-05-10T11:51:38;0.97;;;0.93;;
47575;SDS011;33304;52.456;13.328;2023-05-10T11:54:09;0.97;;;0.97;;
47575;SDS011;33304;52.456;13.328;2023-05-10T11:56:37;1.20;;;1.10;;
47575;SDS011;33304;52.456;13.328;2023-05-10T11:59:05;2.60;;;1.23;;
47575;SDS011;33304;52.456;13.328;2023-05-10T12:01:33;1.87;;;1.10;;
47575;SDS011;33304;52.456;13.328;2023-05-10T12:04:00;1.40;;;1.30;;
47575;SDS011;33304;52.456;13.328;2023-05-10T12:06:28;1.50;;;1.40;;
47575;SDS011;33304;52.456;13.328;2023-05-10T12:08:57;1.57;;;1.47;;
47575;SDS011;33304;52.456;13.328;2023-05-10T12:11:26;2.60;;;1.60;;
47575;SDS011;33304;52.456;13.328;2023-05-10T12:13:55;1.40;;;1.30;;
47575;SDS011;33304;52.456;13.328;2023-05-10T12:16:22;1.90;;;1.40;;
47575;SDS011;33304;52.456;13.328;2023-05-10T12:18:51;2.83;;;1.90;;
47575;SDS011;33304;52.456;13.328;2023-05-10T12:21:19;1.80;;;1.70;;
47575;SDS011;33304;52.456;13.328;2023-05-10T12:23:48;2.50;;;2.37;;
47575;SDS011;33304;52.456;13.328;2023-05-10T12:26:16;2.50;;;2.40;;
47575;SDS011;33304;52.456;13.328;2023-05-10T12:28:45;2.57;;;2.47;;
47575;SDS011;33304;52.456;13.328;2023-05-10T12:31:12;1.50;;;1.50;;
47575;SDS011;33304;52.456;13.328;2023-05-10T12:33:39;2.03;;;1.93;;
47575;SDS011;33304;52.456;13.328;2023-05-10T12:36:08;2.08;;;1.98;;
47575;SDS011;33304;52.456;13.328;2023-05-10T12:38:36;2.03;;;1.92;;
47575;SDS011;33304;52.456;13.328;2023-05-10T12:41:05;1.88;;;1.77;;
47575;SDS011;33304;52.456;13.328;2023-05-10T12:43:33;1.52;;;1.42;;
47575;SDS011;33304;52.456;13.328;2023-05-10T12:46:07;2.22;;;2.03;;
47575;SDS011;33304;52.456;13.328;2023-05-10T12:48:35;4.03;;;3.83;;
47575;SDS011;33304;52.456;13.328;2023-05-10T12:51:02;2.78;;;2.58;;
47575;SDS011;33304;52.456;13.328;2023-05-10T12:53:30;2.45;;;2.20;;
47575;SDS011;33304;52.456;13.328;2023-05-10T12:55:58;2.50;;;2.40;;
47575;SDS011;33304;52.456;13.328;2023-05-10T12:58:26;2.08;;;1.98;;
47575;SDS011;33304;52.456;13.328;2023-05-10T13:00:53;2.08;;;1.98;;
47575;SDS011;33304;52.456;13.328;2023-05-10T13:03:23;4.63;;;2.95;;
47575;SDS011;33304;52.456;13.328;2023-05-10T13:05:50;5.25;;;4.95;;
47575;SDS011;33304;52.456;13.328;2023-05-10T13:08:17;10.25;;;9.82;;
47575;SDS011;33304;52.456;13.328;2023-05-10T13:10:44;10.38;;;9.88;;
47575;SDS011;33304;52.456;13.328;2023-05-10T13:13:11;10.20;;;9.80;;
47575;SDS011;33304;52.456;13.328;2023-05-10T13:15:38;8.02;;;7.72;;
47575;SDS011;33304;52.456;13.328;2023-05-10T13:18:05;6.88;;;6.57;;
47575;SDS011;33304;52.456;13.328;2023-05-10T13:20:33;7.40;;;7.00;;
47575;SDS011;33304;52.456;13.328;2023-05-10T13:23:01;6.65;;;6.35;;
47575;SDS011;33304;52.456;13.328;2023-05-10T13:25:28;6.03;;;5.72;;
47575;SDS011;33304;52.456;13.328;2023-05-10T13:27:55;5.07;;;4.88;;
47575;SDS011;33304;52.456;13.328;2023-05-10T13:30:22;4.72;;;4.38;;
47575;SDS011;33304;52.456;13.328;2023-05-10T13:32:50;3.60;;;3.50;;
47575;SDS011;33304;52.456;13.328;2023-05-10T13:35:17;3.60;;;3.33;;
47575;SDS011;33304;52.456;13.328;2023-05-10T13:37:45;3.53;;;3.33;;
47575;SDS011;33304;52.456;13.328;2023-05-10T13:40:12;4.60;;;4.40;;
47575;SDS011;33304;52.456;13.328;2023-05-10T13:42:40;3.20;;;3.10;;
47575;SDS011;33304;52.456;13.328;2023-05-10T13:45:08;2.70;;;2.60;;
47575;SDS011;33304;52.456;13.328;2023-05-10T13:47:37;2.60;;;2.50;;
47575;SDS011;33304;52.456;13.328;2023-05-10T13:50:04;3.70;;;3.50;;
47575;SDS011;33304;52.456;13.328;2023-05-10T13:52:32;4.55;;;4.20;;
47575;SDS011;33304;52.456;13.328;2023-05-10T13:55:01;4.60;;;4.40;;
47575;SDS011;33304;52.456;13.328;2023-05-10T13:57:28;3.63;;;3.42;;
47575;SDS011;33304;52.456;13.328;2023-05-10T13:59:55;4.45;;;4.25;;
47575;SDS011;33304;52.456;13.328;2023-05-10T14:02:23;4.95;;;4.75;;
47575;SDS011;33304;52.456;13.328;2023-05-10T14:04:51;4.35;;;4.15;;
47575;SDS011;33304;52.456;13.328;2023-05-10T14:07:18;4.50;;;4.30;;
47575;SDS011;33304;52.456;13.328;2023-05-10T14:09:45;4.45;;;4.25;;
47575;SDS011;33304;52.456;13.328;2023-05-10T14:12:13;3.17;;;3.08;;
47575;SDS011;33304;52.456;13.328;2023-05-10T14:14:40;3.90;;;3.75;;
47575;SDS011;33304;52.456;13.328;2023-05-10T14:17:07;4.30;;;4.10;;
47575;SDS011;33304;52.456;13.328;2023-05-10T14:19:35;8.48;;;8.07;;
47575;SDS011;33304;52.456;13.328;2023-05-10T14:22:02;6.97;;;6.68;;
47575;SDS011;33304;52.456;13.328;2023-05-10T14:24:29;5.50;;;5.30;;
47575;SDS011;33304;52.456;13.328;2023-05-10T14:26:56;5.10;;;4.90;;
47575;SDS011;33304;52.456;13.328;2023-05-10T14:29:24;4.47;;;4.28;;
47575;SDS011;33304;52.456;13.328;2023-05-10T14:31:51;5.05;;;4.85;;
47575;SDS011;33304;52.456;13.328;2023-05-10T14:34:18;2.95;;;2.85;;
47575;SDS011;33304;52.456;13.328;2023-05-10T14:36:45;2.03;;;1.92;;
47575;SDS011;33304;52.456;13.328;2023-05-10T14:39:12;5.88;;;5.47;;
47575;SDS011;33304;52.456;13.328;2023-05-10T14:41:39;7.93;;;7.63;;
47575;SDS011;33304;52.456;13.328;2023-05-10T14:44:08;8.98;;;8.57;;
47575;SDS011;33304;52.456;13.328;2023-05-10T14:46:36;10.32;;;9.93;;
47575;SDS011;33304;52.456;13.328;2023-05-10T14:49:03;9.43;;;9.02;;
47575;SDS011;33304;52.456;13.328;2023-05-10T14:51:30;6.40;;;6.10;;